createdAt,value
2018-04-07T00:00:39.525Z,50.34
2018-04-07T00:03:07.075Z,50.17
2018-04-07T00:05:34.589Z,50.41
2018-04-07T00:08:02.522Z,50.81
2018-04-07T00:10:30.844Z,50.75
2018-04-07T00:12:59.289Z,50.98
2018-04-07T00:15:27.593Z,50.68
2018-04-07T00:17:55.764Z,50.82
2018-04-07T00:20:23.313Z,50.83
2018-04-07T00:22:50.821Z,51.07
2018-04-07T00:25:18.342Z,51.27
2018-04-07T00:27:45.901Z,51.54
2018-04-07T00:30:13.417Z,50.97
2018-04-07T00:32:40.930Z,51.38
2018-04-07T00:35:08.642Z,51.02
2018-04-07T00:37:36.153Z,51.54
2018-04-07T00:40:03.667Z,51.70
2018-04-07T00:42:31.322Z,52.11
2018-04-07T00:44:58.843Z,51.78
2018-04-07T00:47:26.359Z,51.74
2018-04-07T00:49:54.137Z,52.34
2018-04-07T00:52:22.065Z,52.19
2018-04-07T00:54:49.578Z,52.22
2018-04-07T00:57:17.150Z,52.37
2018-04-07T00:59:44.661Z,52.73
2018-04-07T01:02:12.170Z,52.61
2018-04-07T01:04:39.710Z,52.88
2018-04-07T01:07:07.226Z,53.26
2018-04-07T01:09:34.748Z,53.23
2018-04-07T01:12:02.361Z,53.41
2018-04-07T01:14:29.868Z,53.38
2018-04-07T01:16:57.381Z,53.49
2018-04-07T01:19:25.122Z,53.60
2018-04-07T01:21:52.636Z,54.25
2018-04-07T01:24:20.150Z,53.94
2018-04-07T01:26:47.785Z,53.66
2018-04-07T01:29:15.296Z,53.95
2018-04-07T01:31:42.806Z,53.89
2018-04-07T01:34:10.574Z,53.92
2018-04-07T01:36:38.085Z,54.34
2018-04-07T01:39:06.644Z,54.26
2018-04-07T01:41:34.185Z,54.41
2018-04-07T01:44:01.708Z,54.46
2018-04-07T01:46:29.407Z,54.75
2018-04-07T01:48:56.938Z,54.99
2018-04-07T01:51:24.502Z,54.86
2018-04-07T01:53:52.035Z,54.94
2018-04-07T01:56:19.587Z,54.92
2018-04-07T01:58:47.110Z,54.81
2018-04-07T02:01:14.625Z,55.10
2018-04-07T02:03:42.756Z,55.15
2018-04-07T02:06:10.290Z,54.93
2018-04-07T02:08:37.797Z,54.93
2018-04-07T02:11:05.341Z,55.19
2018-04-07T02:13:32.858Z,55.28
2018-04-07T02:16:00.374Z,55.20
2018-04-07T02:18:27.913Z,55.07
2018-04-07T02:20:55.424Z,55.20
2018-04-07T02:23:22.953Z,55.32
2018-04-07T02:25:50.501Z,55.40
2018-04-07T02:28:19.696Z,55.44
2018-04-07T02:30:47.210Z,55.33
2018-04-07T02:33:14.754Z,55.14
2018-04-07T02:35:42.282Z,55.67
2018-04-07T02:38:10.320Z,55.72
2018-04-07T02:40:38.099Z,55.95
2018-04-07T02:43:05.629Z,55.94
2018-04-07T02:45:33.169Z,55.86
2018-04-07T02:48:00.685Z,56.52
2018-04-07T02:50:28.274Z,56.22
2018-04-07T02:52:55.821Z,56.34
2018-04-07T02:55:23.374Z,56.84
2018-04-07T02:57:50.915Z,56.70
2018-04-07T03:00:18.430Z,57.20
2018-04-07T03:02:45.985Z,57.31
2018-04-07T03:05:13.501Z,57.26
2018-04-07T03:07:41.014Z,57.89
2018-04-07T03:10:08.562Z,57.74
2018-04-07T03:12:36.074Z,57.85
2018-04-07T03:15:03.625Z,57.78
2018-04-07T03:17:31.170Z,57.94
2018-04-07T03:19:58.687Z,57.69
2018-04-07T03:22:26.258Z,58.19
2018-04-07T03:24:53.771Z,58.09
2018-04-07T03:27:21.477Z,58.03
2018-04-07T03:29:49.034Z,58.28
2018-04-07T03:32:16.541Z,58.45
2018-04-07T03:34:44.090Z,58.33
2018-04-07T03:37:11.606Z,58.47
2018-04-07T03:39:39.272Z,58.42
2018-04-07T03:42:06.789Z,58.39
2018-04-07T03:44:34.307Z,58.58
2018-04-07T03:47:01.904Z,58.72
2018-04-07T03:49:29.414Z,58.75
2018-04-07T03:51:57.271Z,58.59
2018-04-07T03:54:24.805Z,58.56
2018-04-07T03:56:52.318Z,58.83
2018-04-07T03:59:20.098Z,58.51
2018-04-07T04:01:47.601Z,58.67
2018-04-07T04:04:15.140Z,58.81
2018-04-07T04:06:42.652Z,59.31
2018-04-07T04:09:10.166Z,59.11
2018-04-07T04:11:37.698Z,59.04
2018-04-07T04:14:05.217Z,59.54
2018-04-07T04:16:33.065Z,59.35
2018-04-07T04:19:00.577Z,59.95
2018-04-07T04:21:28.088Z,60.29
2018-04-07T04:23:56.252Z,60.64
2018-04-07T04:26:23.777Z,61.47
2018-04-07T04:28:51.512Z,61.65
2018-04-07T04:31:19.029Z,61.04
2018-04-07T04:33:46.541Z,61.00
2018-04-07T04:36:14.086Z,61.28
2018-04-07T04:38:41.598Z,61.50
2018-04-07T04:41:09.284Z,61.30
2018-04-07T04:43:36.802Z,61.37
2018-04-07T04:46:04.326Z,61.33
2018-04-07T04:48:31.863Z,60.65
2018-04-07T04:50:59.378Z,60.60
2018-04-07T04:53:26.951Z,60.72
2018-04-07T04:55:54.531Z,60.67
2018-04-07T04:58:22.037Z,61.00
2018-04-07T05:00:49.683Z,61.28
2018-04-07T05:03:17.207Z,60.62
2018-04-07T05:05:44.872Z,60.29
2018-04-07T05:08:12.384Z,60.38
2018-04-07T05:10:39.908Z,60.25
2018-04-07T05:13:07.445Z,59.96
2018-04-07T05:15:34.966Z,59.91
2018-04-07T05:18:02.667Z,59.64
2018-04-07T05:20:30.180Z,59.64
2018-04-07T05:22:57.715Z,59.44
2018-04-07T05:25:25.254Z,59.40
2018-04-07T05:27:53.133Z,59.32
2018-04-07T05:30:21.081Z,59.22
2018-04-07T05:32:48.605Z,58.83
2018-04-07T05:35:16.126Z,58.84
2018-04-07T05:37:43.671Z,58.74
2018-04-07T05:40:11.185Z,58.81
2018-04-07T05:42:38.737Z,58.27
2018-04-07T05:45:06.267Z,58.02
2018-04-07T05:47:33.778Z,57.95
2018-04-07T05:50:01.572Z,57.54
2018-04-07T05:52:29.082Z,56.84
2018-04-07T05:54:56.773Z,55.92
2018-04-07T05:57:24.281Z,54.95
2018-04-07T05:59:51.805Z,53.82
2018-04-07T06:02:19.398Z,52.93
2018-04-07T06:04:47.037Z,51.59
2018-04-07T06:07:14.598Z,50.71
2018-04-07T06:09:42.113Z,49.58
2018-04-07T06:12:09.702Z,48.83
2018-04-07T06:14:37.270Z,48.62
2018-04-07T06:17:04.903Z,48.28
2018-04-07T06:19:32.510Z,46.85
2018-04-07T06:22:00.042Z,46.48
2018-04-07T06:24:27.646Z,45.30
2018-04-07T06:26:55.197Z,44.53
2018-04-07T06:29:22.731Z,43.70
2018-04-07T06:31:50.286Z,42.71
2018-04-07T06:34:17.817Z,42.07
2018-04-07T06:36:45.354Z,41.45
2018-04-07T06:39:12.917Z,40.91
2018-04-07T06:41:40.438Z,39.77
2018-04-07T06:44:08.025Z,39.99
2018-04-07T06:46:35.544Z,40.38
2018-04-07T06:49:03.070Z,40.47
2018-04-07T06:51:30.613Z,41.68
2018-04-07T06:53:58.133Z,41.75
2018-04-07T06:56:25.781Z,41.98
2018-04-07T06:58:53.301Z,41.56
2018-04-07T07:01:20.814Z,40.15
2018-04-07T07:03:48.357Z,39.43
2018-04-07T07:06:15.890Z,38.98
2018-04-07T07:08:47.160Z,38.17
2018-04-07T07:11:14.715Z,38.08
2018-04-07T07:13:42.793Z,37.85
2018-04-07T07:16:10.439Z,37.94
2018-04-07T07:18:38.025Z,37.42
2018-04-07T07:21:05.789Z,37.97
2018-04-07T07:23:33.309Z,36.96
2018-04-07T07:26:00.897Z,36.05
2018-04-07T07:28:28.443Z,37.28
2018-04-07T07:30:56.321Z,36.17
2018-04-07T07:33:23.947Z,35.68
2018-04-07T07:35:51.849Z,34.72
2018-04-07T07:38:19.616Z,34.62
2018-04-07T07:40:47.176Z,34.04
2018-04-07T07:43:14.834Z,33.39
2018-04-07T07:45:42.708Z,32.94
2018-04-07T07:48:10.246Z,31.55
2018-04-07T07:50:37.790Z,30.88
2018-04-07T07:53:05.431Z,30.59
2018-04-07T07:55:33.318Z,29.65
2018-04-07T07:58:01.245Z,29.33
2018-04-07T08:00:28.953Z,30.92
2018-04-07T08:02:56.538Z,29.51
2018-04-07T08:05:24.143Z,29.54
2018-04-07T08:07:52.487Z,28.76
2018-04-07T08:10:20.225Z,27.86
2018-04-07T08:12:47.906Z,26.05
2018-04-07T08:15:15.551Z,26.16
2018-04-07T08:17:43.435Z,26.04
2018-04-07T08:20:11.200Z,26.04
2018-04-07T08:22:39.551Z,25.63
2018-04-07T08:25:07.172Z,24.72
2018-04-07T08:27:34.806Z,23.65
2018-04-07T08:30:03.009Z,22.62
2018-04-07T08:32:30.557Z,22.24
2018-04-07T08:34:58.176Z,20.81
2018-04-07T08:37:25.697Z,21.77
2018-04-07T08:39:53.210Z,20.52
2018-04-07T08:42:20.866Z,20.72
2018-04-07T08:44:48.387Z,19.51
2018-04-07T08:47:16.187Z,18.84
2018-04-07T08:49:43.705Z,17.12
2018-04-07T08:52:11.229Z,16.90
2018-04-07T08:54:39.278Z,15.43
2018-04-07T08:57:06.905Z,16.51
2018-04-07T08:59:34.790Z,16.70
2018-04-07T09:02:02.437Z,16.39
2018-04-07T09:04:30.220Z,15.61
2018-04-07T09:06:57.769Z,15.79
2018-04-07T09:09:25.341Z,14.58
2018-04-07T09:11:53.422Z,14.48
2018-04-07T09:14:21.065Z,14.88
2018-04-07T09:16:48.745Z,14.85
2018-04-07T09:19:16.353Z,13.67
2018-04-07T09:21:43.969Z,12.40
2018-04-07T09:24:12.141Z,12.17
2018-04-07T09:26:39.668Z,12.48
2018-04-07T09:29:07.198Z,11.34
2018-04-07T09:31:35.158Z,12.46
2018-04-07T09:34:03.606Z,11.08
2018-04-07T09:36:31.359Z,10.95
2018-04-07T09:38:58.881Z,10.26
2018-04-07T09:41:26.429Z,10.33
2018-04-07T09:43:54.152Z,10.97
2018-04-07T09:46:21.845Z,11.10
2018-04-07T09:48:49.415Z,11.12
2018-04-07T09:51:16.935Z,10.48
2018-04-07T09:53:44.523Z,10.94
2018-04-07T09:56:12.077Z,10.58
2018-04-07T09:58:39.725Z,10.30
2018-04-07T10:01:07.419Z,9.87
2018-04-07T10:03:34.929Z,9.54
2018-04-07T10:06:02.529Z,9.96
2018-04-07T10:08:30.052Z,9.53
2018-04-07T10:10:57.750Z,11.05
2018-04-07T10:13:25.323Z,10.80
2018-04-07T10:15:52.848Z,10.75
2018-04-07T10:18:21.186Z,10.12
2018-04-07T10:20:48.712Z,9.05
2018-04-07T10:23:16.555Z,10.60
2018-04-07T10:25:44.117Z,10.06
2018-04-07T10:28:11.701Z,8.88
2018-04-07T10:30:39.277Z,9.90
2018-04-07T10:33:06.907Z,8.75
2018-04-07T10:35:34.546Z,8.69
2018-04-07T10:38:02.152Z,8.81
2018-04-07T10:40:29.836Z,8.09
2018-04-07T10:42:57.406Z,8.92
2018-04-07T10:45:24.956Z,8.57
2018-04-07T10:47:52.522Z,8.51
2018-04-07T10:50:20.045Z,8.04
2018-04-07T10:52:47.628Z,7.85
2018-04-07T10:55:15.155Z,8.56
2018-04-07T10:57:42.689Z,8.72
2018-04-07T11:00:10.590Z,7.13
2018-04-07T11:02:38.308Z,6.43
2018-04-07T11:05:05.877Z,7.27
2018-04-07T11:07:33.599Z,8.14
2018-04-07T11:10:01.977Z,8.58
2018-04-07T11:12:29.708Z,8.69
2018-04-07T11:14:57.327Z,8.66
2018-04-07T11:17:24.987Z,8.43
2018-04-07T11:19:52.553Z,8.93
2018-04-07T11:22:20.167Z,8.33
2018-04-07T11:24:47.871Z,7.54
2018-04-07T11:27:15.385Z,7.66
2018-04-07T11:29:42.897Z,7.51
2018-04-07T11:32:10.463Z,6.88
2018-04-07T11:34:37.973Z,8.58
2018-04-07T11:37:05.662Z,7.34
2018-04-07T11:39:33.195Z,8.29
2018-04-07T11:42:00.747Z,7.46
2018-04-07T11:44:28.345Z,8.29
2018-04-07T11:46:55.861Z,8.53
2018-04-07T11:49:23.400Z,7.55
2018-04-07T11:51:50.914Z,7.30
2018-04-07T11:54:18.656Z,7.61
2018-04-07T11:56:46.170Z,7.10
2018-04-07T11:59:13.718Z,7.58
2018-04-07T12:01:41.271Z,8.14
2018-04-07T12:04:09.127Z,7.94
2018-04-07T12:06:36.791Z,8.52
2018-04-07T12:09:04.379Z,7.71
2018-04-07T12:11:32.092Z,7.73
2018-04-07T12:13:59.642Z,6.35
2018-04-07T12:16:27.310Z,6.69
2018-04-07T12:18:55.092Z,7.17
2018-04-07T12:21:22.675Z,6.99
2018-04-07T12:23:50.204Z,6.30
2018-04-07T12:26:17.754Z,6.52
2018-04-07T12:28:45.274Z,6.97
2018-04-07T12:31:12.940Z,6.59
2018-04-07T12:33:40.468Z,6.11
2018-04-07T12:36:07.993Z,5.77
2018-04-07T12:38:35.652Z,6.61
2018-04-07T12:41:03.198Z,5.76
2018-04-07T12:43:30.896Z,6.37
2018-04-07T12:45:58.438Z,5.67
2018-04-07T12:48:25.967Z,6.07
2018-04-07T12:50:53.506Z,7.82
2018-04-07T12:53:21.029Z,6.04
2018-04-07T12:55:48.665Z,6.47
2018-04-07T12:58:16.202Z,6.30
2018-04-07T13:00:43.726Z,6.53
2018-04-07T13:03:11.373Z,7.24
2018-04-07T13:05:38.893Z,6.65
2018-04-07T13:08:06.565Z,8.50
2018-04-07T13:10:34.131Z,6.33
2018-04-07T13:13:01.647Z,7.09
2018-04-07T13:15:29.198Z,6.96
2018-04-07T13:17:56.713Z,6.12
2018-04-07T13:20:24.337Z,5.62
2018-04-07T13:22:51.867Z,5.84
2018-04-07T13:25:19.486Z,6.86
2018-04-07T13:27:47.021Z,7.18
2018-04-07T13:30:14.546Z,6.51
2018-04-07T13:35:17.409Z,6.61
2018-04-07T13:37:45.269Z,6.17
2018-04-07T13:40:12.784Z,5.74
2018-04-07T13:42:40.293Z,6.27
2018-04-07T13:45:07.843Z,6.12
2018-04-07T13:47:35.536Z,7.84
2018-04-07T13:50:03.099Z,6.72
2018-04-07T13:52:30.614Z,6.79
2018-04-07T13:54:58.152Z,7.13
2018-04-07T13:57:25.693Z,7.07
2018-04-07T13:59:53.241Z,6.47
2018-04-07T14:02:20.962Z,6.71
2018-04-07T14:04:48.514Z,7.03
2018-04-07T14:07:16.022Z,7.89
2018-04-07T14:09:43.561Z,7.29
2018-04-07T14:12:11.082Z,7.62
2018-04-07T14:14:38.636Z,8.25
2018-04-07T14:17:06.175Z,7.56
2018-04-07T14:19:33.695Z,8.18
2018-04-07T14:22:01.246Z,8.81
2018-04-07T14:24:28.828Z,8.19
2018-04-07T14:26:56.381Z,9.23
2018-04-07T14:29:23.935Z,8.64
2018-04-07T14:31:51.461Z,7.81
2018-04-07T14:34:19.560Z,8.79
2018-04-07T14:36:47.288Z,9.17
2018-04-07T14:39:14.830Z,8.47
2018-04-07T14:41:42.417Z,8.44
2018-04-07T14:44:09.940Z,7.62
2018-04-07T14:46:37.597Z,8.83
2018-04-07T14:49:05.140Z,7.76
2018-04-07T14:51:32.649Z,8.34
2018-04-07T14:54:00.184Z,8.14
2018-04-07T14:56:27.701Z,8.40
2018-04-07T14:58:55.208Z,8.15
2018-04-07T15:01:22.738Z,9.17
2018-04-07T15:03:50.309Z,8.69
2018-04-07T15:06:17.843Z,9.16
2018-04-07T15:08:45.434Z,9.84
2018-04-07T15:11:13.064Z,8.04
2018-04-07T15:13:40.616Z,7.70
2018-04-07T15:16:13.885Z,8.40
2018-04-07T15:18:41.810Z,8.85
2018-04-07T15:21:09.486Z,8.94
2018-04-07T15:23:37.009Z,9.45
2018-04-07T15:26:04.614Z,10.07
2018-04-07T15:28:32.175Z,10.27
2018-04-07T15:30:59.728Z,9.93
2018-04-07T15:33:27.745Z,10.20
2018-04-07T15:35:55.278Z,10.27
2018-04-07T15:38:22.836Z,10.81
2018-04-07T15:40:50.424Z,11.51
2018-04-07T15:43:17.983Z,11.64
2018-04-07T15:45:45.717Z,12.46
2018-04-07T15:48:13.859Z,12.92
2018-04-07T15:50:41.449Z,12.77
2018-04-07T15:53:09.046Z,14.03
2018-04-07T15:55:36.573Z,14.94
2018-04-07T15:58:04.145Z,15.28
2018-04-07T16:00:31.668Z,15.75
2018-04-07T16:02:59.257Z,16.24
2018-04-07T16:05:26.846Z,16.64
2018-04-07T16:07:54.449Z,16.90
2018-04-07T16:10:22.141Z,17.12
2018-04-07T16:12:49.777Z,18.32
2018-04-07T16:15:17.390Z,18.82
2018-04-07T16:17:44.985Z,19.33
2018-04-07T16:20:12.642Z,20.00
2018-04-07T16:22:40.502Z,20.76
2018-04-07T16:25:08.458Z,20.95
2018-04-07T16:27:36.129Z,21.08
2018-04-07T16:30:03.850Z,20.84
2018-04-07T16:32:31.422Z,21.47
2018-04-07T16:34:59.079Z,21.96
2018-04-07T16:37:26.740Z,21.80
2018-04-07T16:39:54.273Z,21.56
2018-04-07T16:42:22.273Z,22.04
2018-04-07T16:44:49.794Z,22.41
2018-04-07T16:47:17.633Z,22.78
2018-04-07T16:49:45.179Z,23.00
2018-04-07T16:52:12.696Z,23.20
2018-04-07T16:54:40.241Z,23.40
2018-04-07T16:57:07.885Z,23.79
2018-04-07T16:59:35.945Z,24.25
2018-04-07T17:02:03.601Z,24.43
2018-04-07T17:04:31.234Z,24.92
2018-04-07T17:06:58.806Z,24.82
2018-04-07T17:09:26.370Z,25.30
2018-04-07T17:11:54.936Z,25.35
2018-04-07T17:14:22.457Z,25.61
2018-04-07T17:16:49.982Z,25.96
2018-04-07T17:19:17.924Z,26.32
2018-04-07T17:21:45.454Z,26.63
2018-04-07T17:24:13.118Z,26.83
2018-04-07T17:26:40.759Z,27.26
2018-04-07T17:29:08.323Z,27.10
2018-04-07T17:34:26.642Z,27.86
2018-04-07T17:36:55.530Z,28.48
2018-04-07T17:39:23.057Z,28.21
2018-04-07T17:41:50.675Z,28.52
2018-04-07T17:44:18.905Z,28.74
2018-04-07T17:46:46.981Z,28.93
2018-04-07T17:49:15.663Z,28.99
2018-04-07T17:51:43.494Z,29.08
2018-04-07T17:54:11.190Z,29.63
2018-04-07T17:56:38.958Z,29.75
2018-04-07T17:59:06.616Z,30.00
2018-04-07T18:01:34.460Z,30.39
2018-04-07T18:04:02.143Z,31.18
2018-04-07T18:06:29.724Z,31.29
2018-04-07T18:08:57.575Z,31.16
2018-04-07T18:11:25.371Z,30.54
2018-04-07T18:13:57.150Z,30.62
2018-04-07T18:16:24.838Z,30.67
2018-04-07T18:18:52.497Z,30.84
2018-04-07T18:21:20.387Z,30.97
2018-04-07T18:23:48.245Z,30.92
2018-04-07T18:26:16.635Z,30.83
2018-04-07T18:28:44.184Z,32.06
2018-04-07T18:31:11.726Z,31.80
2018-04-07T18:33:39.308Z,31.72
2018-04-07T18:36:06.969Z,31.87
2018-04-07T18:38:34.581Z,31.87
2018-04-07T18:41:17.201Z,31.36
2018-04-07T18:43:44.900Z,30.92
2018-04-07T18:46:12.671Z,30.72
2018-04-07T18:48:40.743Z,30.76
2018-04-07T18:51:08.513Z,31.21
2018-04-07T18:53:46.919Z,31.45
2018-04-07T18:56:14.953Z,32.37
2018-04-07T18:58:42.654Z,32.76
2018-04-07T19:01:10.208Z,32.86
2018-04-07T19:03:37.814Z,32.96
2018-04-07T19:06:05.391Z,32.85
2018-04-07T19:08:33.441Z,33.09
2018-04-07T19:11:01.373Z,32.83
2018-04-07T19:13:29.236Z,32.78
2018-04-07T19:15:56.999Z,33.23
2018-04-07T19:18:24.766Z,32.39
2018-04-07T19:20:53.249Z,32.09
2018-04-07T19:23:21.113Z,31.81
2018-04-07T19:25:49.184Z,31.69
2018-04-07T19:28:17.054Z,31.60
2018-04-07T19:33:35.413Z,31.86
2018-04-07T19:36:03.314Z,31.84
2018-04-07T19:38:31.155Z,31.93
2018-04-07T19:40:59.945Z,31.83
2018-04-07T19:43:27.805Z,31.97
2018-04-07T19:45:55.547Z,31.98
2018-04-07T19:48:23.444Z,31.87
2018-04-07T19:50:51.504Z,31.90
2018-04-07T19:53:19.561Z,31.85
2018-04-07T19:56:11.100Z,32.25
2018-04-07T19:58:39.721Z,32.16
2018-04-07T20:01:07.436Z,32.00
2018-04-07T20:03:35.822Z,31.85
2018-04-07T20:06:03.691Z,32.03
2018-04-07T20:08:32.069Z,32.86
2018-04-07T20:11:01.230Z,33.27
2018-04-07T20:13:33.129Z,34.25
2018-04-07T20:16:00.914Z,34.56
2018-04-07T20:18:28.831Z,34.94
2018-04-07T20:20:56.827Z,34.54
2018-04-07T20:23:24.807Z,35.34
2018-04-07T20:25:52.696Z,34.35
2018-04-07T20:28:20.970Z,34.33
2018-04-07T20:30:48.677Z,34.63
2018-04-07T20:33:16.576Z,34.47
2018-04-07T20:35:44.548Z,34.60
2018-04-07T20:38:12.408Z,34.87
2018-04-07T20:40:40.381Z,35.12
2018-04-07T20:43:15.108Z,35.05
2018-04-07T20:45:42.977Z,35.20
2018-04-07T20:48:11.232Z,35.32
2018-04-07T20:50:39.004Z,36.57
2018-04-07T20:53:06.781Z,36.80
2018-04-07T20:55:34.639Z,36.41
2018-04-07T20:58:02.374Z,36.01
2018-04-07T21:00:30.124Z,36.16
2018-04-07T21:02:57.813Z,35.49
2018-04-07T21:05:25.479Z,35.99
2018-04-07T21:07:53.070Z,36.00
2018-04-07T21:10:21.221Z,36.04
2018-04-07T21:12:48.869Z,35.49
2018-04-07T21:15:16.552Z,35.63
2018-04-07T21:17:44.342Z,35.42
2018-04-07T21:20:12.075Z,35.63
2018-04-07T21:22:41.381Z,35.51
2018-04-07T21:25:09.111Z,36.00
2018-04-07T21:27:36.697Z,36.17
2018-04-07T21:30:04.668Z,36.82
2018-04-07T21:32:32.426Z,37.55
2018-04-07T21:34:59.984Z,38.15
2018-04-07T21:37:28.370Z,37.68
2018-04-07T21:39:56.031Z,37.60
2018-04-07T21:42:23.694Z,37.70
2018-04-07T21:44:51.662Z,37.86
2018-04-07T21:47:19.795Z,38.14
2018-04-07T21:49:47.498Z,38.27
2018-04-07T21:52:15.366Z,38.19
2018-04-07T21:54:43.141Z,38.28
2018-04-07T21:57:10.895Z,38.67
2018-04-07T21:59:38.469Z,39.07
2018-04-07T22:02:06.202Z,39.23
2018-04-07T22:04:33.876Z,39.22
2018-04-07T22:07:01.445Z,39.35
2018-04-07T22:09:29.058Z,39.48
2018-04-07T22:11:56.700Z,39.31
2018-04-07T22:14:24.532Z,39.13
2018-04-07T22:16:53.198Z,39.66
2018-04-07T22:19:20.974Z,39.57
2018-04-07T22:21:48.840Z,40.23
2018-04-07T22:24:16.707Z,39.59
2018-04-07T22:26:44.461Z,39.31
2018-04-07T22:29:12.241Z,39.54
2018-04-07T22:31:39.897Z,39.98
2018-04-07T22:34:07.743Z,39.92
2018-04-07T22:36:36.892Z,40.29
2018-04-07T22:39:05.215Z,40.09
2018-04-07T22:41:34.227Z,40.75
2018-04-07T22:44:01.831Z,40.64
2018-04-07T22:46:29.991Z,40.58
2018-04-07T22:48:57.726Z,41.04
2018-04-07T22:51:25.288Z,40.87
2018-04-07T22:53:52.934Z,41.59
2018-04-07T22:56:20.815Z,41.75
2018-04-07T22:58:48.811Z,41.98
2018-04-07T23:01:17.597Z,41.90
2018-04-07T23:03:45.556Z,42.21
2018-04-07T23:06:13.158Z,42.55
2018-04-07T23:08:41.072Z,42.62
2018-04-07T23:11:08.597Z,42.92
2018-04-07T23:13:36.222Z,43.30
2018-04-07T23:16:03.754Z,43.59
2018-04-07T23:18:31.337Z,44.02
2018-04-07T23:20:59.057Z,44.62
2018-04-07T23:23:26.586Z,45.11
2018-04-07T23:25:54.262Z,46.13
2018-04-07T23:28:21.779Z,45.61
2018-04-07T23:30:49.497Z,45.76
2018-04-07T23:33:17.027Z,45.84
2018-04-07T23:35:44.554Z,46.18
2018-04-07T23:38:12.113Z,45.60
2018-04-07T23:40:39.654Z,46.07
2018-04-07T23:43:07.818Z,46.51
2018-04-07T23:45:35.333Z,46.56
2018-04-07T23:48:02.882Z,46.02
2018-04-07T23:50:30.438Z,46.77
2018-04-07T23:52:57.958Z,46.80
2018-04-07T23:55:25.899Z,46.19
2018-04-07T23:57:53.458Z,46.15
